createdAt,value
2023-04-06T00:00:15.626Z,31.00
2023-04-06T00:02:42.409Z,32.20
2023-04-06T00:05:09.351Z,31.15
2023-04-06T00:07:36.356Z,30.83
2023-04-06T00:10:04.391Z,31.08
2023-04-06T00:12:31.206Z,29.55
2023-04-06T00:14:58.011Z,31.10
2023-04-06T00:17:24.791Z,29.65
2023-04-06T00:19:51.760Z,28.80
2023-04-06T00:22:18.584Z,28.60
2023-04-06T00:24:45.351Z,27.95
2023-04-06T00:27:12.138Z,28.20
2023-04-06T00:29:39.706Z,26.45
2023-04-06T00:32:06.661Z,27.80
2023-04-06T00:34:33.556Z,27.10
2023-04-06T00:37:00.456Z,27.00
2023-04-06T00:39:27.158Z,27.63
2023-04-06T00:41:54.645Z,26.27
2023-04-06T00:44:22.529Z,26.35
2023-04-06T00:46:49.378Z,26.80
2023-04-06T00:49:16.310Z,26.08
2023-04-06T00:51:43.131Z,28.00
2023-04-06T00:54:09.952Z,27.38
2023-04-06T00:56:36.919Z,28.17
2023-04-06T00:59:03.960Z,26.67
2023-04-06T01:01:31.059Z,25.13
2023-04-06T01:03:57.916Z,23.88
2023-04-06T01:06:24.673Z,24.25
2023-04-06T01:08:51.510Z,25.52
2023-04-06T01:11:18.928Z,24.65
2023-04-06T01:13:45.970Z,23.70
2023-04-06T01:16:12.850Z,25.23
2023-04-06T01:18:39.693Z,23.00
2023-04-06T01:21:06.866Z,22.75
2023-04-06T01:23:33.603Z,22.77
2023-04-06T01:26:00.399Z,20.95
2023-04-06T01:28:27.148Z,21.45
2023-04-06T01:30:53.892Z,21.08
2023-04-06T01:33:20.747Z,20.70
2023-04-06T01:35:47.529Z,20.63
2023-04-06T01:38:14.401Z,19.25
2023-04-06T01:40:42.357Z,18.92
2023-04-06T01:43:09.113Z,18.67
2023-04-06T01:45:36.013Z,18.85
2023-04-06T01:48:03.297Z,19.02
2023-04-06T01:50:30.113Z,18.60
2023-04-06T01:52:56.961Z,19.38
2023-04-06T01:55:23.773Z,18.13
2023-04-06T01:57:50.461Z,18.73
2023-04-06T02:00:17.429Z,18.27
2023-04-06T02:02:44.157Z,19.15
2023-04-06T02:05:10.989Z,18.23
2023-04-06T02:07:37.868Z,18.10
2023-04-06T02:10:05.471Z,17.42
2023-04-06T02:12:32.353Z,17.17
2023-04-06T02:14:59.135Z,18.27
2023-04-06T02:17:25.878Z,17.63
2023-04-06T02:19:52.659Z,17.60
2023-04-06T02:22:19.413Z,18.58
2023-04-06T02:24:47.606Z,17.42
2023-04-06T02:27:15.963Z,17.73
2023-04-06T02:29:42.807Z,18.15
2023-04-06T02:32:09.590Z,17.33
2023-04-06T02:34:36.301Z,16.40
2023-04-06T02:37:02.987Z,17.65
2023-04-06T02:39:29.772Z,18.10
2023-04-06T02:41:57.107Z,18.05
2023-04-06T02:44:24.081Z,17.52
2023-04-06T02:46:51.213Z,17.83
2023-04-06T02:49:17.977Z,16.70
2023-04-06T02:51:44.737Z,18.63
2023-04-06T02:54:11.505Z,19.58
2023-04-06T02:56:38.303Z,18.65
2023-04-06T02:59:05.065Z,19.17
2023-04-06T03:01:31.972Z,18.33
2023-04-06T03:03:58.769Z,19.02
2023-04-06T03:06:25.714Z,18.48
2023-04-06T03:08:52.420Z,19.48
2023-04-06T03:11:19.279Z,18.27
2023-04-06T03:13:46.589Z,18.98
2023-04-06T03:16:13.342Z,19.85
2023-04-06T03:18:40.122Z,20.33
2023-04-06T03:21:06.806Z,19.38
2023-04-06T03:23:33.548Z,18.98
2023-04-06T03:26:00.248Z,19.77
2023-04-06T03:28:26.957Z,20.48
2023-04-06T03:30:53.697Z,21.23
2023-04-06T03:33:20.493Z,19.90
2023-04-06T03:35:47.359Z,19.33
2023-04-06T03:38:14.122Z,21.40
2023-04-06T03:40:41.001Z,20.42
2023-04-06T03:43:07.756Z,20.63
2023-04-06T03:45:34.444Z,21.35
2023-04-06T03:48:01.226Z,20.27
2023-04-06T03:50:27.959Z,20.88
2023-04-06T03:52:54.685Z,20.45
2023-04-06T03:55:21.384Z,20.73
2023-04-06T03:57:48.150Z,20.42
2023-04-06T04:00:15.804Z,20.98
2023-04-06T04:02:42.626Z,20.60
2023-04-06T04:05:09.933Z,21.23
2023-04-06T04:07:36.689Z,20.30
2023-04-06T04:10:03.929Z,21.13
2023-04-06T04:12:30.622Z,21.40
2023-04-06T04:14:57.408Z,21.95
2023-04-06T04:17:25.708Z,21.80
2023-04-06T04:19:52.497Z,21.65
2023-04-06T04:22:19.221Z,21.88
2023-04-06T04:24:46.068Z,21.20
2023-04-06T04:27:12.823Z,21.58
2023-04-06T04:29:39.606Z,21.52
2023-04-06T04:32:06.531Z,22.40
2023-04-06T04:34:33.822Z,23.17
2023-04-06T04:37:00.596Z,23.60
2023-04-06T04:39:27.366Z,22.77
2023-04-06T04:41:54.880Z,22.95
2023-04-06T04:44:21.615Z,23.58
2023-04-06T04:46:48.310Z,23.38
2023-04-06T04:49:15.061Z,23.58
2023-04-06T04:51:41.845Z,24.23
2023-04-06T04:54:08.585Z,24.05
2023-04-06T04:56:35.374Z,25.40
2023-04-06T04:59:02.305Z,24.48
2023-04-06T05:01:29.179Z,24.48
2023-04-06T05:03:56.327Z,23.73
2023-04-06T05:06:23.053Z,25.20
2023-04-06T05:08:49.792Z,23.80
2023-04-06T05:11:16.575Z,25.08
2023-04-06T05:13:43.392Z,24.40
2023-04-06T05:16:10.423Z,25.40
2023-04-06T05:18:37.457Z,25.23
2023-04-06T05:21:04.381Z,26.15
2023-04-06T05:23:31.285Z,25.48
2023-04-06T05:25:58.105Z,25.08
2023-04-06T05:28:25.116Z,26.98
2023-04-06T05:30:52.141Z,25.90
2023-04-06T05:33:19.070Z,25.58
2023-04-06T05:35:45.844Z,26.25
2023-04-06T05:38:12.633Z,27.00
2023-04-06T05:40:41.793Z,25.90
2023-04-06T05:43:09.088Z,27.65
2023-04-06T05:45:36.111Z,27.42
2023-04-06T05:48:03.599Z,27.80
2023-04-06T05:50:30.474Z,28.15
2023-04-06T05:52:57.251Z,27.27
2023-04-06T05:55:24.014Z,27.80
2023-04-06T05:57:50.908Z,27.73
2023-04-06T06:00:18.527Z,28.73
2023-04-06T06:02:45.684Z,30.67
2023-04-06T06:05:12.555Z,29.15
2023-04-06T06:07:39.388Z,30.65
2023-04-06T06:10:06.684Z,29.50
2023-04-06T06:12:33.441Z,29.95
2023-04-06T06:15:00.218Z,30.77
2023-04-06T06:17:27.068Z,29.77
2023-04-06T06:19:53.821Z,30.08
2023-04-06T06:22:20.918Z,30.23
2023-04-06T06:24:47.670Z,30.17
2023-04-06T06:27:14.483Z,29.67
2023-04-06T06:29:41.254Z,29.83
2023-04-06T06:32:10.115Z,29.63
2023-04-06T06:34:37.082Z,30.20
2023-04-06T06:37:03.963Z,31.30
2023-04-06T06:39:30.938Z,30.98
2023-04-06T06:41:57.814Z,30.38
2023-04-06T06:44:24.620Z,31.40
2023-04-06T06:46:51.388Z,32.42
2023-04-06T06:49:18.163Z,33.67
2023-04-06T06:51:45.083Z,32.92
2023-04-06T06:54:11.983Z,33.25
2023-04-06T06:56:39.166Z,33.08
2023-04-06T06:59:07.025Z,33.42
2023-04-06T07:01:35.658Z,33.67
2023-04-06T07:04:02.676Z,34.65
2023-04-06T07:06:29.499Z,36.30
2023-04-06T07:08:56.209Z,34.72
2023-04-06T07:11:23.023Z,35.17
2023-04-06T07:13:49.915Z,33.85
2023-04-06T07:16:17.298Z,31.40
2023-04-06T07:18:44.278Z,31.88
2023-04-06T07:21:11.189Z,29.08
2023-04-06T07:23:38.086Z,25.45
2023-04-06T07:26:04.870Z,25.20
2023-04-06T07:28:31.822Z,22.77
2023-04-06T07:30:58.543Z,22.67
2023-04-06T07:33:26.026Z,21.85
2023-04-06T07:35:53.593Z,21.42
2023-04-06T07:38:20.561Z,23.30
2023-04-06T07:40:47.370Z,24.67
2023-04-06T07:43:14.148Z,28.75
2023-04-06T07:45:41.028Z,27.45
2023-04-06T07:48:07.975Z,28.05
2023-04-06T07:50:34.846Z,24.73
2023-04-06T07:53:01.989Z,23.83
2023-04-06T07:55:28.769Z,22.92
2023-04-06T07:57:55.606Z,22.50
2023-04-06T08:00:22.857Z,23.40
2023-04-06T08:02:49.881Z,23.00
2023-04-06T08:05:17.047Z,23.92
2023-04-06T08:07:44.349Z,24.58
2023-04-06T08:10:11.404Z,23.70
2023-04-06T08:12:38.133Z,25.50
2023-04-06T08:15:05.741Z,25.20
2023-04-06T08:17:34.739Z,26.25
2023-04-06T08:20:01.866Z,27.08
2023-04-06T08:22:28.648Z,26.52
2023-04-06T08:24:55.418Z,27.55
2023-04-06T08:27:22.228Z,27.35
2023-04-06T08:29:51.628Z,25.10
2023-04-06T08:32:18.392Z,21.25
2023-04-06T08:34:45.293Z,20.25
2023-04-06T08:37:12.024Z,17.95
2023-04-06T08:39:38.849Z,16.58
2023-04-06T08:42:06.432Z,14.02
2023-04-06T08:44:33.764Z,14.18
2023-04-06T08:47:01.343Z,16.05
2023-04-06T08:49:29.016Z,15.48
2023-04-06T08:51:56.737Z,14.02
2023-04-06T08:54:23.574Z,12.63
2023-04-06T08:56:50.756Z,11.75
2023-04-06T08:59:18.188Z,11.85
2023-04-06T09:01:46.937Z,12.52
2023-04-06T09:04:14.393Z,10.82
2023-04-06T09:06:42.067Z,10.98
2023-04-06T09:09:09.186Z,11.20
2023-04-06T09:11:51.115Z,11.75
2023-04-06T09:16:46.724Z,12.13
2023-04-06T09:19:13.936Z,11.70
2023-04-06T09:21:41.270Z,11.63
2023-04-06T09:24:09.434Z,10.95
2023-04-06T09:26:47.231Z,9.93
2023-04-06T09:29:25.120Z,10.98
2023-04-06T09:31:51.978Z,11.10
2023-04-06T09:34:23.804Z,12.38
2023-04-06T09:39:22.498Z,11.73
2023-04-06T09:44:18.052Z,11.65
2023-04-06T09:46:59.564Z,12.00
2023-04-06T09:49:32.607Z,11.55
2023-04-06T09:52:04.749Z,12.00
2023-04-06T09:54:32.478Z,12.88
2023-04-06T09:57:05.931Z,12.68
2023-04-06T09:59:46.256Z,12.27
2023-04-06T10:02:33.403Z,13.63
2023-04-06T10:05:30.777Z,13.75
2023-04-06T10:08:02.984Z,13.18
2023-04-06T10:10:30.297Z,12.60
2023-04-06T10:12:58.642Z,13.02
2023-04-06T10:15:25.630Z,12.52
2023-04-06T10:17:53.049Z,13.20
2023-04-06T10:20:30.147Z,13.07
2023-04-06T10:23:06.235Z,13.32
2023-04-06T10:25:34.298Z,12.80
2023-04-06T10:28:08.863Z,13.48
2023-04-06T10:30:42.346Z,13.40
2023-04-06T10:33:20.103Z,13.25
2023-04-06T10:35:47.273Z,13.82
2023-04-06T10:38:15.348Z,14.82
2023-04-06T10:40:48.686Z,14.75
2023-04-06T10:43:22.085Z,13.35
2023-04-06T10:46:01.036Z,13.20
2023-04-06T10:48:41.728Z,12.68
2023-04-06T10:51:11.180Z,11.95
2023-04-06T10:53:37.997Z,12.18
2023-04-06T10:56:10.202Z,11.10
2023-04-06T10:58:37.267Z,11.65
2023-04-06T11:01:04.614Z,11.30
2023-04-06T11:03:31.404Z,10.98
2023-04-06T11:05:58.129Z,11.38
2023-04-06T11:08:32.315Z,10.60
2023-04-06T11:11:10.115Z,10.00
2023-04-06T11:13:50.655Z,11.40
2023-04-06T11:16:18.380Z,11.25
2023-04-06T11:19:04.936Z,11.82
2023-04-06T11:21:44.640Z,12.48
2023-04-06T11:24:16.350Z,13.65
2023-04-06T11:29:10.166Z,13.07
2023-04-06T11:31:46.659Z,13.48
2023-04-06T11:34:17.049Z,14.40
2023-04-06T11:36:45.766Z,13.43
2023-04-06T11:39:19.953Z,14.75
2023-04-06T11:42:08.405Z,15.30
2023-04-06T11:44:46.742Z,15.10
2023-04-06T11:47:14.244Z,14.88
2023-04-06T11:49:43.385Z,15.30
2023-04-06T11:52:20.376Z,14.48
2023-04-06T11:54:48.946Z,14.25
2023-04-06T11:57:16.421Z,14.48
2023-04-06T11:59:43.498Z,14.70
2023-04-06T12:02:10.472Z,15.40
2023-04-06T12:04:37.534Z,15.23
2023-04-06T12:07:05.322Z,14.07
2023-04-06T12:09:32.826Z,14.60
2023-04-06T12:11:59.677Z,13.77
2023-04-06T12:14:26.507Z,15.15
2023-04-06T12:16:53.294Z,14.27
2023-04-06T12:19:20.244Z,13.82
2023-04-06T12:21:46.999Z,14.00
2023-04-06T12:24:13.786Z,13.88
2023-04-06T12:26:42.576Z,14.88
2023-04-06T12:29:09.366Z,13.15
2023-04-06T12:31:37.303Z,14.10
2023-04-06T12:34:04.590Z,14.32
2023-04-06T12:36:32.229Z,12.98
2023-04-06T12:38:59.720Z,11.65
2023-04-06T12:41:26.541Z,12.55
2023-04-06T12:43:53.403Z,10.73
2023-04-06T12:46:20.837Z,10.05
2023-04-06T12:48:47.766Z,10.10
2023-04-06T12:51:14.616Z,12.02
2023-04-06T12:53:41.528Z,11.73
2023-04-06T12:56:16.615Z,10.98
2023-04-06T12:58:43.759Z,10.52
2023-04-06T13:01:12.603Z,10.38
2023-04-06T13:03:40.444Z,10.35
2023-04-06T13:06:09.189Z,11.18
2023-04-06T13:08:38.107Z,11.25
2023-04-06T13:11:05.973Z,9.77
2023-04-06T13:13:32.951Z,10.30
2023-04-06T13:16:04.790Z,10.48
2023-04-06T13:18:33.326Z,10.90
2023-04-06T13:21:02.758Z,10.32
2023-04-06T13:23:29.848Z,10.05
2023-04-06T13:26:07.501Z,11.18
2023-04-06T13:28:38.884Z,10.77
2023-04-06T13:31:06.045Z,10.60
2023-04-06T13:33:32.915Z,11.07
2023-04-06T13:36:00.496Z,11.40
2023-04-06T13:38:27.624Z,11.73
2023-04-06T13:40:54.378Z,10.73
2023-04-06T13:43:21.797Z,11.57
2023-04-06T13:45:54.908Z,11.90
2023-04-06T13:48:22.149Z,11.85
2023-04-06T13:50:49.101Z,11.15
2023-04-06T13:53:15.983Z,10.88
2023-04-06T13:55:42.747Z,11.75
2023-04-06T13:58:09.512Z,11.38
2023-04-06T14:00:36.989Z,11.15
2023-04-06T14:03:04.007Z,11.55
2023-04-06T14:05:34.380Z,11.27
2023-04-06T14:08:01.531Z,10.88
2023-04-06T14:10:28.960Z,11.70
2023-04-06T14:12:56.751Z,12.30
2023-04-06T14:15:24.904Z,12.07
2023-04-06T14:17:52.365Z,12.27
2023-04-06T14:20:19.707Z,12.68
2023-04-06T14:22:47.364Z,11.90
2023-04-06T14:25:14.231Z,11.30
2023-04-06T14:27:41.026Z,12.15
2023-04-06T14:30:08.577Z,11.68
2023-04-06T14:32:35.605Z,11.23
2023-04-06T14:35:02.615Z,11.40
2023-04-06T14:37:29.487Z,11.40
2023-04-06T14:39:56.298Z,11.95
2023-04-06T14:42:23.022Z,11.00
2023-04-06T14:44:50.311Z,12.10
2023-04-06T14:47:21.138Z,12.40
2023-04-06T14:49:50.718Z,12.40
2023-04-06T14:52:17.489Z,13.45
2023-04-06T14:54:44.434Z,12.85
2023-04-06T14:57:11.211Z,14.43
2023-04-06T14:59:40.016Z,13.07
2023-04-06T15:02:07.860Z,12.77
2023-04-06T15:04:37.914Z,13.18
2023-04-06T15:07:05.040Z,13.18
2023-04-06T15:09:31.832Z,12.52
2023-04-06T15:11:58.644Z,13.30
2023-04-06T15:14:25.927Z,13.25
2023-04-06T15:16:52.710Z,13.05
2023-04-06T15:19:19.663Z,13.07
2023-04-06T15:21:46.478Z,12.63
2023-04-06T15:24:13.332Z,12.98
2023-04-06T15:26:40.084Z,12.43
2023-04-06T15:29:06.864Z,12.30
2023-04-06T15:31:38.177Z,12.77
2023-04-06T15:34:08.848Z,11.77
2023-04-06T15:36:36.305Z,11.52
2023-04-06T15:39:04.573Z,11.35
2023-04-06T15:41:31.686Z,11.73
2023-04-06T15:43:58.509Z,12.82
2023-04-06T15:46:27.586Z,12.93
2023-04-06T15:48:54.537Z,13.48
2023-04-06T15:51:21.438Z,13.77
2023-04-06T15:53:48.208Z,13.80
2023-04-06T15:56:14.878Z,13.23
2023-04-06T15:58:42.090Z,14.20
2023-04-06T16:01:14.097Z,13.25
2023-04-06T16:03:41.044Z,13.48
2023-04-06T16:06:09.175Z,13.88
2023-04-06T16:08:37.038Z,14.95
2023-04-06T16:11:03.942Z,13.82
2023-04-06T16:13:30.866Z,13.82
2023-04-06T16:15:57.791Z,16.33
2023-04-06T16:18:24.607Z,17.83
2023-04-06T16:20:51.525Z,20.35
2023-04-06T16:23:18.603Z,20.58
2023-04-06T16:25:45.819Z,21.35
2023-04-06T16:28:12.634Z,20.50
2023-04-06T16:30:41.470Z,21.83
2023-04-06T16:33:10.629Z,22.38
2023-04-06T16:35:44.115Z,22.33
2023-04-06T16:38:11.233Z,22.58
2023-04-06T16:40:37.973Z,23.45
2023-04-06T16:43:05.154Z,24.60
2023-04-06T16:45:32.253Z,26.25
2023-04-06T16:47:59.059Z,25.17
2023-04-06T16:50:26.075Z,24.20
2023-04-06T16:52:52.854Z,27.38
2023-04-06T16:55:20.135Z,26.42
2023-04-06T16:57:49.084Z,26.58
2023-04-06T17:00:16.618Z,28.80
2023-04-06T17:02:47.301Z,29.60
2023-04-06T17:05:14.491Z,30.03
2023-04-06T17:07:41.310Z,30.58
2023-04-06T17:10:08.492Z,31.65
2023-04-06T17:12:35.327Z,31.75
2023-04-06T17:15:02.239Z,30.77
2023-04-06T17:17:29.103Z,31.83
2023-04-06T17:19:55.938Z,29.35
2023-04-06T17:22:22.743Z,31.27
2023-04-06T17:24:49.688Z,30.83
2023-04-06T17:27:16.652Z,29.70
2023-04-06T17:29:43.451Z,30.70
2023-04-06T17:32:11.849Z,29.92
2023-04-06T17:34:39.066Z,30.38
2023-04-06T17:37:05.879Z,29.55
2023-04-06T17:39:32.853Z,25.70
2023-04-06T17:42:00.088Z,20.23
2023-04-06T17:44:26.964Z,17.05
2023-04-06T17:46:53.766Z,16.60
2023-04-06T17:49:20.510Z,15.25
2023-04-06T17:51:47.315Z,14.25
2023-04-06T17:54:14.244Z,11.70
2023-04-06T17:56:41.489Z,11.98
2023-04-06T17:59:11.352Z,11.18
2023-04-06T18:01:39.571Z,9.50
2023-04-06T18:04:06.574Z,7.55
2023-04-06T18:06:33.385Z,7.93
2023-04-06T18:09:00.868Z,6.57
2023-04-06T18:11:31.002Z,7.55
2023-04-06T18:13:58.257Z,6.05
2023-04-06T18:16:25.157Z,6.85
2023-04-06T18:18:52.176Z,7.05
2023-04-06T18:21:18.932Z,6.93
2023-04-06T18:23:46.494Z,6.22
2023-04-06T18:26:18.564Z,6.32
2023-04-06T18:28:45.976Z,6.18
2023-04-06T18:31:12.787Z,5.93
2023-04-06T18:33:39.591Z,5.57
2023-04-06T18:36:06.784Z,5.57
2023-04-06T18:38:33.453Z,5.43
2023-04-06T18:41:00.433Z,5.63
2023-04-06T18:43:27.930Z,5.03
2023-04-06T18:45:54.610Z,4.47
2023-04-06T18:48:21.403Z,5.47
2023-04-06T18:51:03.053Z,5.22
2023-04-06T18:53:30.019Z,5.50
2023-04-06T18:55:57.659Z,5.75
2023-04-06T18:58:27.674Z,5.90
2023-04-06T19:00:57.251Z,5.18
2023-04-06T19:03:24.207Z,4.47
2023-04-06T19:05:51.167Z,4.88
2023-04-06T19:08:17.936Z,4.75
2023-04-06T19:10:44.657Z,4.82
2023-04-06T19:13:11.462Z,4.88
2023-04-06T19:15:41.800Z,3.83
2023-04-06T19:18:08.836Z,4.40
2023-04-06T19:20:35.666Z,4.30
2023-04-06T19:23:03.725Z,4.15
2023-04-06T19:25:30.569Z,4.22
2023-04-06T19:27:57.499Z,4.50
2023-04-06T19:30:24.278Z,4.20
2023-04-06T19:32:51.115Z,4.00
2023-04-06T19:35:17.892Z,4.05
2023-04-06T19:37:44.899Z,4.07
2023-04-06T19:40:11.812Z,3.78
2023-04-06T19:42:38.853Z,3.85
2023-04-06T19:45:06.784Z,3.75
2023-04-06T19:47:34.875Z,3.42
2023-04-06T19:50:05.693Z,3.65
2023-04-06T19:52:32.772Z,3.47
2023-04-06T19:55:00.177Z,3.42
2023-04-06T19:57:27.824Z,3.38
2023-04-06T19:59:56.390Z,3.53
2023-04-06T20:02:23.468Z,3.40
2023-04-06T20:04:50.332Z,3.47
2023-04-06T20:07:16.986Z,3.55
2023-04-06T20:09:43.737Z,3.55
2023-04-06T20:12:10.644Z,3.38
2023-04-06T20:14:37.400Z,3.67
2023-04-06T20:17:04.189Z,3.55
2023-04-06T20:19:31.213Z,3.00
2023-04-06T20:21:59.342Z,2.92
2023-04-06T20:24:26.181Z,3.03
2023-04-06T20:26:52.965Z,3.65
2023-04-06T20:29:19.829Z,3.40
2023-04-06T20:31:46.854Z,3.75
2023-04-06T20:34:14.258Z,3.10
2023-04-06T20:36:41.129Z,3.30
2023-04-06T20:39:08.020Z,3.70
2023-04-06T20:41:35.038Z,3.58
2023-04-06T20:44:01.776Z,3.30
2023-04-06T20:46:28.650Z,2.90
2023-04-06T20:48:55.583Z,3.05
2023-04-06T20:51:25.541Z,3.80
2023-04-06T20:53:52.961Z,2.97
2023-04-06T20:56:21.942Z,3.17
2023-04-06T20:58:49.309Z,3.08
2023-04-06T21:01:17.344Z,2.88
2023-04-06T21:03:44.655Z,3.53
2023-04-06T21:06:12.165Z,2.83
2023-04-06T21:08:39.325Z,2.95
2023-04-06T21:11:06.622Z,2.90
2023-04-06T21:13:34.301Z,3.22
2023-04-06T21:16:01.705Z,3.80
2023-04-06T21:18:32.143Z,3.92
2023-04-06T21:20:59.247Z,3.75
2023-04-06T21:23:26.023Z,4.18
2023-04-06T21:25:55.280Z,4.32
2023-04-06T21:28:22.150Z,4.53
2023-04-06T21:30:48.829Z,5.20
2023-04-06T21:33:15.668Z,5.10
2023-04-06T21:35:42.470Z,5.90
2023-04-06T21:38:09.738Z,4.05
2023-04-06T21:40:36.870Z,4.82
2023-04-06T21:43:04.256Z,4.68
2023-04-06T21:45:32.547Z,4.97
2023-04-06T21:48:00.612Z,4.63
2023-04-06T21:50:27.387Z,4.82
2023-04-06T21:52:54.117Z,6.40
2023-04-06T21:55:20.840Z,4.70
2023-04-06T21:57:47.517Z,4.68
2023-04-06T22:00:15.049Z,5.18
2023-04-06T22:02:42.232Z,5.50
2023-04-06T22:05:09.532Z,6.13
2023-04-06T22:07:36.322Z,6.53
2023-04-06T22:10:03.142Z,6.75
2023-04-06T22:12:29.857Z,4.68
2023-04-06T22:14:57.566Z,6.03
2023-04-06T22:17:24.445Z,6.60
2023-04-06T22:19:51.357Z,6.18
2023-04-06T22:22:18.225Z,5.72
2023-04-06T22:24:45.065Z,5.85
2023-04-06T22:27:11.824Z,5.72
2023-04-06T22:29:38.809Z,5.13
2023-04-06T22:32:05.860Z,5.60
2023-04-06T22:34:32.668Z,5.65
2023-04-06T22:36:59.551Z,5.35
2023-04-06T22:39:26.340Z,6.03
2023-04-06T22:41:53.196Z,5.15
2023-04-06T22:44:20.362Z,4.97
2023-04-06T22:46:47.165Z,5.10
2023-04-06T22:49:13.916Z,5.10
2023-04-06T22:51:42.085Z,6.47
2023-04-06T22:54:09.687Z,6.95
2023-04-06T22:56:36.383Z,6.32
2023-04-06T22:59:03.326Z,7.22
2023-04-06T23:01:30.183Z,6.70
2023-04-06T23:03:57.206Z,6.57
2023-04-06T23:06:24.025Z,5.93
2023-04-06T23:08:50.928Z,6.15
2023-04-06T23:11:17.688Z,6.38
2023-04-06T23:13:44.432Z,5.57
2023-04-06T23:16:11.447Z,6.80
2023-04-06T23:18:38.161Z,6.38
2023-04-06T23:21:08.092Z,7.03
2023-04-06T23:23:34.926Z,6.43
2023-04-06T23:26:01.691Z,5.95
2023-04-06T23:28:28.489Z,5.65
2023-04-06T23:30:55.648Z,5.70
2023-04-06T23:33:22.435Z,5.45
2023-04-06T23:35:50.441Z,5.38
2023-04-06T23:38:17.823Z,4.43
2023-04-06T23:40:44.537Z,5.05
2023-04-06T23:43:11.293Z,4.60
2023-04-06T23:45:42.644Z,4.50
2023-04-06T23:48:10.842Z,5.18
2023-04-06T23:50:38.145Z,4.95
2023-04-06T23:53:05.203Z,4.85
2023-04-06T23:55:31.990Z,5.68
2023-04-06T23:57:58.959Z,4.60
